Genegantslet, New York
Current Conditions -  °F | °C
As of 3:53 AM on Tuesday 21 Oct 2014 (Local Time) from KBGM Reporting Station
Overcast Overcast  
Wind Chill: 44°   Ceiling: 9000
Heat Index: 47°   Visibility: 10mi
Dew Point: 41°   Wind: 7mph
Humidity: 80%   Direction: 150°SSE
Pressure: 29.84"   Gusts: NA
Location:  42.3542°N, 75.7469°W
Report Text: KBGM 210753Z AUTO 15006KT 10SM SCT060 BKN090 OVC120 08/05 A2984 RMK AO2 SLP107 T00830050
Loading
Personal Weather Stations






























Interactive Weather Map
Tropical Storm Tracking
New forecast layout! Learn more

10-Day Weather Forecast

Advertisements
Track Severe Weather on mobile